Time;durP1;ratioP1;P1;durP2;ratioP2;P2;SDS_P1;SDS_P2;PMS_P1;PMS_P2;Temp;Humidity;BMP_temperature;BMP_pressure;BME280_temperature;BME280_humidity;BME280_pressure;Samples;Min_cycle;Max_cycle;Signal;HPM_P1;HPM_P2
2023/04/06 00:00:56;;;;;;;5.00;3.30;;;;;;;;;;4957294;29;20626;-69
2023/04/06 00:04:01;;;;;;;5.60;3.50;;;;;;;;;;4957639;29;20548;-71
2023/04/06 00:07:05;;;;;;;6.00;3.30;;;;;;;;;;4945957;29;20873;-71
2023/04/06 00:10:09;;;;;;;4.93;3.33;;;;;;;;;;4957407;29;20599;-71
2023/04/06 00:13:13;;;;;;;7.03;3.70;;;;;;;;;;4945830;29;20874;-71
2023/04/06 00:16:17;;;;;;;6.23;3.20;;;;;;;;;;4956095;29;20556;-70
2023/04/06 00:19:21;;;;;;;4.70;3.23;;;;;;;;;;4957333;29;20548;-71
2023/04/06 00:22:26;;;;;;;4.33;3.40;;;;;;;;;;4956615;29;20622;-70
2023/04/06 00:25:29;;;;;;;5.10;3.60;;;;;;;;;;4967414;28;20598;-71
2023/04/06 00:28:34;;;;;;;5.70;3.17;;;;;;;;;;4957415;29;21084;-71
2023/04/06 00:31:38;;;;;;;6.57;3.50;;;;;;;;;;4956060;28;20666;-70
2023/04/06 00:34:42;;;;;;;3.87;3.10;;;;;;;;;;4957293;29;20547;-71
2023/04/06 00:37:48;;;;;;;6.47;3.17;;;;;;;;;;4945472;29;21071;-71
2023/04/06 00:40:52;;;;;;;7.53;4.07;;;;;;;;;;4945322;29;20648;-70
2023/04/06 00:43:56;;;;;;;6.50;3.77;;;;;;;;;;4956889;29;20544;-71
2023/04/06 00:47:00;;;;;;;5.10;3.50;;;;;;;;;;4956036;29;21063;-71
2023/04/06 00:50:05;;;;;;;7.23;3.70;;;;;;;;;;4956898;29;20547;-71
2023/04/06 00:53:09;;;;;;;6.03;3.80;;;;;;;;;;4944526;29;20559;-70
2023/04/06 00:56:14;;;;;;;5.73;3.50;;;;;;;;;;4956467;29;20614;-71
2023/04/06 00:59:28;;;;;;;5.47;3.70;;;;;;;;;;4944527;29;20595;-71
2023/04/06 01:02:33;;;;;;;7.13;4.30;;;;;;;;;;4955782;29;20615;-70
2023/04/06 01:05:40;;;;;;;6.10;3.43;;;;;;;;;;4956762;29;20551;-71
2023/04/06 01:08:47;;;;;;;6.30;4.00;;;;;;;;;;4955367;29;20555;-70
2023/04/06 01:12:00;;;;;;;4.73;3.70;;;;;;;;;;4944221;29;20659;-70
2023/04/06 01:15:10;;;;;;;6.33;3.50;;;;;;;;;;4944766;29;20948;-70
2023/04/06 01:18:16;;;;;;;5.90;3.80;;;;;;;;;;4955532;29;20595;-70
2023/04/06 01:21:29;;;;;;;5.70;3.73;;;;;;;;;;4966362;28;20614;-70
2023/04/06 01:24:54;;;;;;;5.37;3.90;;;;;;;;;;4961652;28;20568;-70
2023/04/06 01:28:21;;;;;;;4.90;3.60;;;;;;;;;;4951556;29;20622;-71
2023/04/06 01:31:32;;;;;;;5.43;3.80;;;;;;;;;;4944126;29;20658;-70
2023/04/06 01:34:36;;;;;;;7.93;3.90;;;;;;;;;;4954852;29;20598;-71
2023/04/06 01:37:42;;;;;;;5.37;3.43;;;;;;;;;;4944005;29;20598;-70
2023/04/06 01:40:50;;;;;;;7.90;4.03;;;;;;;;;;4944432;29;20949;-70
2023/04/06 01:43:58;;;;;;;5.63;4.17;;;;;;;;;;4944579;29;20547;-71
2023/04/06 01:47:05;;;;;;;5.37;4.00;;;;;;;;;;4943687;29;20548;-71
2023/04/06 01:50:10;;;;;;;6.93;4.53;;;;;;;;;;4955857;29;20539;-70
2023/04/06 01:53:20;;;;;;;4.97;4.17;;;;;;;;;;4965645;28;20902;-71
2023/04/06 01:56:25;;;;;;;4.33;3.70;;;;;;;;;;4954652;29;20614;-71
2023/04/06 01:59:37;;;;;;;5.87;4.10;;;;;;;;;;4955029;29;20551;-71
2023/04/06 02:02:47;;;;;;;8.20;3.97;;;;;;;;;;4943720;29;20591;-71
2023/04/06 02:05:57;;;;;;;6.20;3.83;;;;;;;;;;4943624;29;20540;-71
2023/04/06 02:09:07;;;;;;;5.90;4.10;;;;;;;;;;4943450;29;21159;-70
2023/04/06 02:12:11;;;;;;;5.73;4.00;;;;;;;;;;4954345;28;20662;-70
2023/04/06 02:15:15;;;;;;;5.53;4.30;;;;;;;;;;4954207;29;20595;-70
2023/04/06 02:18:20;;;;;;;5.90;4.20;;;;;;;;;;4954759;29;20548;-71
2023/04/06 02:21:24;;;;;;;7.37;4.30;;;;;;;;;;4954327;29;20622;-70
2023/04/06 02:24:29;;;;;;;7.73;4.40;;;;;;;;;;4954900;29;20599;-70
2023/04/06 02:27:33;;;;;;;7.13;4.57;;;;;;;;;;4955418;29;20603;-71
2023/04/06 02:30:38;;;;;;;5.77;4.00;;;;;;;;;;4954163;29;20654;-70
2023/04/06 02:33:43;;;;;;;6.37;4.17;;;;;;;;;;4954263;29;20555;-70
2023/04/06 02:36:48;;;;;;;6.23;4.77;;;;;;;;;;4943269;28;20547;-71
2023/04/06 02:39:52;;;;;;;7.30;4.30;;;;;;;;;;4947286;29;21158;-70
2023/04/06 02:42:56;;;;;;;5.13;4.07;;;;;;;;;;4957972;29;20598;-71
2023/04/06 02:46:06;;;;;;;7.03;4.63;;;;;;;;;;4958474;29;20882;-71
2023/04/06 02:49:15;;;;;;;5.67;3.97;;;;;;;;;;4958208;28;20894;-71
2023/04/06 02:52:19;;;;;;;6.87;4.83;;;;;;;;;;4958758;29;20658;-71
2023/04/06 02:55:24;;;;;;;10.40;4.47;;;;;;;;;;4957676;29;20630;-71
2023/04/06 02:58:28;;;;;;;6.83;4.40;;;;;;;;;;5002353;23;20771;-76
2023/04/06 03:01:34;;;;;;;6.80;4.70;;;;;;;;;;5015340;28;20615;-76
2023/04/06 03:04:42;;;;;;;6.63;4.63;;;;;;;;;;5002610;28;20543;-76
2023/04/06 03:07:56;;;;;;;4.93;3.90;;;;;;;;;;5024553;28;21158;-76
2023/04/06 03:11:10;;;;;;;5.53;4.10;;;;;;;;;;5024453;28;20988;-76
2023/04/06 03:14:21;;;;;;;6.13;4.57;;;;;;;;;;5024592;28;20877;-74
2023/04/06 03:17:26;;;;;;;6.10;4.67;;;;;;;;;;5024381;28;20544;-75
2023/04/06 03:20:33;;;;;;;8.43;4.87;;;;;;;;;;5024387;28;20536;-75
2023/04/06 03:23:37;;;;;;;6.30;4.73;;;;;;;;;;5001850;28;20559;-75
2023/04/06 03:26:41;;;;;;;6.87;4.40;;;;;;;;;;5036563;28;20544;-75
2023/04/06 03:29:46;;;;;;;7.53;4.93;;;;;;;;;;5012897;28;20535;-75
2023/04/06 03:32:54;;;;;;;9.33;5.47;;;;;;;;;;5024021;28;20639;-75
2023/04/06 03:36:00;;;;;;;7.47;4.77;;;;;;;;;;5023900;28;20948;-75
2023/04/06 03:39:05;;;;;;;6.83;4.90;;;;;;;;;;5023900;28;20548;-75
2023/04/06 03:42:12;;;;;;;7.50;5.40;;;;;;;;;;5023832;28;20944;-76
2023/04/06 03:45:23;;;;;;;7.80;4.77;;;;;;;;;;5012429;28;20591;-75
2023/04/06 03:48:28;;;;;;;7.60;4.97;;;;;;;;;;5011922;28;20552;-75
2023/04/06 03:51:32;;;;;;;7.07;5.07;;;;;;;;;;5012588;28;20647;-75
2023/04/06 03:54:36;;;;;;;8.10;5.80;;;;;;;;;;5023340;28;20548;-75
2023/04/06 03:57:41;;;;;;;10.87;5.07;;;;;;;;;;5023559;28;20940;-75
2023/04/06 04:00:45;;;;;;;9.00;5.97;;;;;;;;;;5035628;28;20630;-75
2023/04/06 04:03:49;;;;;;;7.17;5.60;;;;;;;;;;5023502;28;20543;-76
2023/04/06 04:06:53;;;;;;;7.97;5.43;;;;;;;;;;5023380;28;20603;-75
2023/04/06 04:09:57;;;;;;;8.33;6.07;;;;;;;;;;5023156;28;20551;-75
2023/04/06 04:13:01;;;;;;;7.17;5.40;;;;;;;;;;5011762;28;20595;-75
2023/04/06 04:16:05;;;;;;;9.83;5.63;;;;;;;;;;5023203;28;20594;-75
2023/04/06 04:19:10;;;;;;;8.50;5.90;;;;;;;;;;5023426;28;20536;-75
2023/04/06 04:22:14;;;;;;;8.67;6.03;;;;;;;;;;5022757;28;20610;-75
2023/04/06 04:25:19;;;;;;;9.43;5.60;;;;;;;;;;5023008;28;20539;-75
2023/04/06 04:28:27;;;;;;;12.03;5.63;;;;;;;;;;5022756;28;20536;-76
2023/04/06 04:31:33;;;;;;;8.87;5.67;;;;;;;;;;5011565;28;20653;-75
2023/04/06 04:34:41;;;;;;;8.23;5.43;;;;;;;;;;5022678;28;20885;-75
2023/04/06 04:37:49;;;;;;;7.50;5.30;;;;;;;;;;5023106;28;20540;-75
2023/04/06 04:40:53;;;;;;;7.57;5.70;;;;;;;;;;5022723;28;20618;-75
2023/04/06 04:43:57;;;;;;;9.00;6.00;;;;;;;;;;5022620;28;20587;-75
2023/04/06 04:47:04;;;;;;;9.40;5.60;;;;;;;;;;5011097;28;20599;-75
2023/04/06 04:50:18;;;;;;;9.33;5.87;;;;;;;;;;5012756;28;20544;-75
2023/04/06 04:53:24;;;;;;;9.07;6.17;;;;;;;;;;5022684;28;20545;-76
2023/04/06 04:56:31;;;;;;;7.80;5.50;;;;;;;;;;5022174;28;20591;-75
2023/04/06 04:59:44;;;;;;;9.27;6.10;;;;;;;;;;5021287;28;20540;-75
2023/04/06 05:02:55;;;;;;;9.57;6.23;;;;;;;;;;5021415;28;20551;-76
2023/04/06 05:06:05;;;;;;;10.03;6.30;;;;;;;;;;5010110;28;21151;-76
2023/04/06 05:09:12;;;;;;;12.70;6.40;;;;;;;;;;5021129;28;20606;-76
2023/04/06 05:12:19;;;;;;;9.63;5.77;;;;;;;;;;5010220;28;20660;-75
2023/04/06 05:15:38;;;;;;;9.60;6.33;;;;;;;;;;5012254;28;21064;-76
2023/04/06 05:18:50;;;;;;;12.27;6.90;;;;;;;;;;5010927;28;20555;-75
2023/04/06 05:21:55;;;;;;;8.60;6.50;;;;;;;;;;5021240;28;20627;-75
2023/04/06 05:24:59;;;;;;;9.50;6.77;;;;;;;;;;5021515;28;20536;-76
2023/04/06 05:28:03;;;;;;;8.47;5.70;;;;;;;;;;5020947;28;20877;-76
2023/04/06 05:31:11;;;;;;;8.80;6.17;;;;;;;;;;5020729;28;20619;-76
2023/04/06 05:34:23;;;;;;;12.30;7.53;;;;;;;;;;5020782;28;20540;-76
2023/04/06 05:37:28;;;;;;;12.57;7.73;;;;;;;;;;5021268;28;20543;-76
2023/04/06 05:40:32;;;;;;;15.47;8.30;;;;;;;;;;4998639;28;20628;-76
2023/04/06 05:43:37;;;;;;;14.60;7.93;;;;;;;;;;5020854;28;20604;-76
2023/04/06 05:46:41;;;;;;;14.90;7.90;;;;;;;;;;5020799;28;20908;-76
2023/04/06 05:49:49;;;;;;;12.20;6.97;;;;;;;;;;5020702;28;20544;-76
2023/04/06 05:53:01;;;;;;;10.60;7.20;;;;;;;;;;5009019;28;20635;-76
2023/04/06 05:56:11;;;;;;;10.60;7.43;;;;;;;;;;5009515;28;20587;-76
2023/04/06 05:59:16;;;;;;;13.40;8.27;;;;;;;;;;4971917;28;1082692;-76
2023/04/06 06:02:21;;;;;;;16.13;7.60;;;;;;;;;;5021181;28;20719;-76
2023/04/06 06:05:28;;;;;;;15.03;7.40;;;;;;;;;;5021603;28;20543;-76
2023/04/06 06:08:35;;;;;;;12.13;7.23;;;;;;;;;;4999274;28;21083;-76
2023/04/06 06:11:42;;;;;;;9.67;6.93;;;;;;;;;;5033232;28;20825;-76
2023/04/06 06:14:48;;;;;;;11.87;6.60;;;;;;;;;;5021211;28;20532;-76
2023/04/06 06:17:53;;;;;;;16.60;8.13;;;;;;;;;;5021353;28;20548;-76
2023/04/06 06:20:57;;;;;;;13.50;6.77;;;;;;;;;;4998653;28;20631;-76
2023/04/06 06:24:01;;;;;;;10.20;6.83;;;;;;;;;;5033203;28;20933;-76
2023/04/06 06:27:07;;;;;;;9.50;6.53;;;;;;;;;;5009977;28;20882;-76
2023/04/06 06:30:12;;;;;;;16.40;7.67;;;;;;;;;;5009934;28;20536;-76
2023/04/06 06:33:19;;;;;;;11.73;8.00;;;;;;;;;;5009766;28;21175;-76
2023/04/06 06:36:25;;;;;;;11.23;7.43;;;;;;;;;;5009448;28;20591;-76
2023/04/06 06:39:29;;;;;;;10.60;7.00;;;;;;;;;;5020699;28;20591;-76
2023/04/06 06:42:34;;;;;;;10.03;7.07;;;;;;;;;;5020914;28;20968;-76
2023/04/06 06:45:58;;;;;;;12.07;6.20;;;;;;;;;;5001216;28;21083;-76
2023/04/06 06:49:02;;;;;;;11.80;6.97;;;;;;;;;;5009690;28;20556;-76
2023/04/06 06:52:06;;;;;;;16.40;7.17;;;;;;;;;;5021209;28;20232;-76
2023/04/06 06:55:11;;;;;;;8.50;6.80;;;;;;;;;;5021221;28;20185;-76
2023/04/06 06:58:18;;;;;;;11.97;7.07;;;;;;;;;;5020635;28;20208;-77
2023/04/06 07:01:22;;;;;;;10.17;6.93;;;;;;;;;;5021081;28;20228;-77
2023/04/06 07:04:26;;;;;;;10.90;7.37;;;;;;;;;;5009818;28;20177;-76
2023/04/06 07:07:32;;;;;;;10.23;6.93;;;;;;;;;;5032939;28;20189;-77
2023/04/06 07:10:36;;;;;;;9.07;7.17;;;;;;;;;;5032005;28;20205;-77
2023/04/06 07:13:40;;;;;;;10.57;7.57;;;;;;;;;;5021282;28;20220;-77
2023/04/06 07:16:45;;;;;;;13.37;6.87;;;;;;;;;;5009239;28;20185;-77
2023/04/06 07:19:49;;;;;;;9.93;6.87;;;;;;;;;;5020551;28;20177;-77
2023/04/06 07:22:54;;;;;;;14.07;7.47;;;;;;;;;;5032775;28;20184;-77
2023/04/06 07:25:58;;;;;;;9.43;7.00;;;;;;;;;;5024578;28;20181;-77
2023/04/06 07:29:02;;;;;;;11.27;7.60;;;;;;;;;;5024559;28;20526;-77
2023/04/06 07:32:06;;;;;;;11.27;6.87;;;;;;;;;;5023907;28;20233;-76
2023/04/06 07:35:11;;;;;;;10.90;7.93;;;;;;;;;;5012873;28;20661;-77
2023/04/06 07:38:16;;;;;;;9.37;6.93;;;;;;;;;;5024033;28;20200;-77
2023/04/06 07:41:20;;;;;;;11.47;7.20;;;;;;;;;;5012537;28;20224;-77
2023/04/06 07:44:25;;;;;;;12.07;7.23;;;;;;;;;;5013117;28;20193;-77
2023/04/06 07:47:30;;;;;;;11.50;7.00;;;;;;;;;;5023663;28;20181;-77
2023/04/06 07:50:35;;;;;;;9.27;6.83;;;;;;;;;;5012567;28;20634;-77
2023/04/06 07:53:40;;;;;;;8.73;7.20;;;;;;;;;;5012344;28;20677;-76
2023/04/06 07:56:44;;;;;;;9.03;6.00;;;;;;;;;;5024060;28;20189;-76
2023/04/06 07:59:48;;;;;;;9.80;7.00;;;;;;;;;;5036122;28;20181;-76
2023/04/06 08:02:52;;;;;;;8.07;6.50;;;;;;;;;;5035547;28;20180;-76
2023/04/06 08:05:57;;;;;;;9.57;6.07;;;;;;;;;;5023390;28;20197;-76
2023/04/06 08:09:01;;;;;;;7.67;5.80;;;;;;;;;;5035621;28;20201;-77
2023/04/06 08:12:05;;;;;;;7.83;5.43;;;;;;;;;;5035285;28;20216;-76
2023/04/06 08:15:09;;;;;;;8.53;4.97;;;;;;;;;;5023631;28;20180;-76
2023/04/06 08:18:14;;;;;;;7.07;4.90;;;;;;;;;;5023472;28;20188;-77
2023/04/06 08:21:18;;;;;;;7.27;5.17;;;;;;;;;;5035100;28;20216;-76
2023/04/06 08:24:22;;;;;;;6.27;5.30;;;;;;;;;;5011927;28;20200;-77
2023/04/06 08:27:26;;;;;;;7.80;5.33;;;;;;;;;;5035633;28;20189;-77
2023/04/06 08:30:30;;;;;;;9.97;5.10;;;;;;;;;;5034920;28;20205;-77
2023/04/06 08:33:36;;;;;;;7.70;5.57;;;;;;;;;;5034836;28;20228;-76
2023/04/06 08:36:41;;;;;;;6.40;4.43;;;;;;;;;;5034060;28;20184;-76
2023/04/06 08:39:45;;;;;;;7.20;5.20;;;;;;;;;;5034945;28;20185;-77
2023/04/06 08:42:55;;;;;;;9.57;4.83;;;;;;;;;;5011838;28;20177;-77
2023/04/06 08:46:00;;;;;;;7.30;4.53;;;;;;;;;;5022829;28;20197;-77
2023/04/06 08:49:06;;;;;;;5.93;4.50;;;;;;;;;;5011447;28;20192;-77
2023/04/06 08:52:11;;;;;;;5.27;3.77;;;;;;;;;;5022583;28;20225;-77
2023/04/06 08:55:15;;;;;;;7.33;5.00;;;;;;;;;;5034830;28;20185;-77
2023/04/06 08:58:22;;;;;;;6.03;4.80;;;;;;;;;;5034660;28;20200;-77
2023/04/06 09:01:27;;;;;;;6.13;4.40;;;;;;;;;;5034832;28;20217;-77
2023/04/06 09:04:33;;;;;;;16.60;4.47;;;;;;;;;;5022495;28;20182;-77
2023/04/06 09:07:38;;;;;;;6.13;4.60;;;;;;;;;;5022782;28;20668;-77
2023/04/06 09:10:42;;;;;;;5.83;4.57;;;;;;;;;;5022312;28;20220;-77
2023/04/06 09:13:48;;;;;;;11.27;4.57;;;;;;;;;;5034398;28;20664;-77
2023/04/06 09:16:53;;;;;;;4.80;4.20;;;;;;;;;;5034682;28;20190;-77
2023/04/06 09:19:57;;;;;;;5.03;4.00;;;;;;;;;;5034277;28;20630;-77
2023/04/06 09:23:01;;;;;;;7.23;4.77;;;;;;;;;;5034532;28;20181;-77
2023/04/06 09:26:13;;;;;;;9.33;4.50;;;;;;;;;;5022074;28;20200;-76
2023/04/06 09:29:27;;;;;;;4.77;3.80;;;;;;;;;;5021858;28;20637;-77
2023/04/06 09:32:31;;;;;;;6.30;5.20;;;;;;;;;;5020503;28;20228;-77
2023/04/06 09:35:35;;;;;;;6.70;5.13;;;;;;;;;;5034095;28;20626;-77
2023/04/06 09:38:53;;;;;;;6.37;5.30;;;;;;;;;;5033955;28;20185;-77
2023/04/06 09:41:57;;;;;;;6.77;5.07;;;;;;;;;;5033671;28;20224;-77
2023/04/06 09:45:02;;;;;;;9.90;4.70;;;;;;;;;;5032749;28;20177;-78
2023/04/06 09:48:06;;;;;;;11.07;5.67;;;;;;;;;;5033134;28;20181;-77
2023/04/06 09:51:14;;;;;;;7.20;4.90;;;;;;;;;;5021538;28;20223;-77
2023/04/06 09:54:20;;;;;;;7.13;5.20;;;;;;;;;;5021098;28;20228;-77
2023/04/06 09:57:52;;;;;;;7.37;4.83;;;;;;;;;;5021602;28;20213;-77
2023/04/06 10:01:08;;;;;;;5.67;4.83;;;;;;;;;;5033298;28;20216;-77
2023/04/06 10:04:27;;;;;;;7.27;4.43;;;;;;;;;;5021190;28;20523;-78
2023/04/06 10:07:31;;;;;;;6.03;3.80;;;;;;;;;;5009883;28;20185;-77
2023/04/06 10:10:35;;;;;;;8.30;5.00;;;;;;;;;;5033122;28;20622;-78
2023/04/06 10:13:40;;;;;;;6.00;5.17;;;;;;;;;;5033029;28;20228;-76
2023/04/06 10:16:44;;;;;;;5.47;4.47;;;;;;;;;;5033094;28;20193;-77
2023/04/06 10:20:10;;;;;;;7.77;4.43;;;;;;;;;;5021321;28;20177;-77
2023/04/06 10:23:32;;;;;;;7.37;5.20;;;;;;;;;;5009776;28;20181;-78
2023/04/06 10:26:36;;;;;;;6.40;5.30;;;;;;;;;;5033539;28;20189;-77
2023/04/06 10:29:43;;;;;;;9.40;5.77;;;;;;;;;;5021447;28;20189;-76
2023/04/06 10:32:47;;;;;;;7.63;5.70;;;;;;;;;;5032715;28;20180;-76
2023/04/06 10:35:51;;;;;;;6.87;5.50;;;;;;;;;;5020998;28;20177;-76
2023/04/06 10:38:58;;;;;;;7.60;5.20;;;;;;;;;;5020721;28;20185;-76
2023/04/06 10:42:06;;;;;;;6.20;5.47;;;;;;;;;;5032680;28;20212;-77
2023/04/06 10:45:31;;;;;;;8.33;5.53;;;;;;;;;;5033068;28;20181;-77
2023/04/06 10:48:45;;;;;;;7.17;5.43;;;;;;;;;;5035317;28;20181;-77
2023/04/06 10:51:56;;;;;;;7.20;5.43;;;;;;;;;;5021621;28;20221;-76
2023/04/06 10:55:01;;;;;;;7.13;5.63;;;;;;;;;;5020449;28;20220;-76
2023/04/06 10:58:07;;;;;;;6.53;5.43;;;;;;;;;;5021416;28;20205;-76
2023/04/06 11:01:12;;;;;;;7.50;5.27;;;;;;;;;;5037723;28;20563;-76
2023/04/06 11:04:18;;;;;;;6.47;5.37;;;;;;;;;;5036591;28;20193;-76
2023/04/06 11:07:26;;;;;;;6.73;5.60;;;;;;;;;;5024699;28;20177;-76
2023/04/06 11:10:30;;;;;;;5.57;4.83;;;;;;;;;;5036732;28;20181;-77
2023/04/06 11:13:43;;;;;;;6.90;5.57;;;;;;;;;;5036675;28;20673;-76
2023/04/06 11:16:49;;;;;;;8.43;5.23;;;;;;;;;;5024945;28;20189;-76
2023/04/06 11:19:55;;;;;;;9.17;5.67;;;;;;;;;;5036624;28;20188;-76
2023/04/06 11:22:59;;;;;;;6.47;5.33;;;;;;;;;;5024348;28;20633;-76
2023/04/06 11:26:03;;;;;;;5.80;5.20;;;;;;;;;;5036532;28;20193;-76
2023/04/06 11:29:08;;;;;;;8.07;5.73;;;;;;;;;;5036467;28;20185;-76
2023/04/06 11:32:20;;;;;;;6.43;5.43;;;;;;;;;;5023938;28;20216;-77
2023/04/06 11:35:24;;;;;;;7.07;5.87;;;;;;;;;;5023844;28;20212;-77
2023/04/06 11:38:29;;;;;;;8.63;5.90;;;;;;;;;;5024384;28;20180;-76
2023/04/06 11:41:34;;;;;;;11.07;5.60;;;;;;;;;;5023992;28;20224;-75
2023/04/06 11:44:49;;;;;;;8.80;6.20;;;;;;;;;;5012755;28;20196;-76
2023/04/06 11:48:01;;;;;;;8.53;5.90;;;;;;;;;;5023935;28;20185;-76
2023/04/06 11:51:06;;;;;;;7.23;6.43;;;;;;;;;;5036165;28;20220;-76
2023/04/06 11:54:10;;;;;;;13.77;6.73;;;;;;;;;;5035921;28;20209;-77
2023/04/06 11:57:16;;;;;;;9.17;6.17;;;;;;;;;;5035545;28;20196;-77
2023/04/06 12:00:21;;;;;;;8.07;6.00;;;;;;;;;;5012668;28;20188;-76
2023/04/06 12:03:25;;;;;;;7.97;5.87;;;;;;;;;;5035850;28;20185;-76
2023/04/06 12:06:29;;;;;;;7.23;5.97;;;;;;;;;;5036024;28;20204;-77
2023/04/06 12:09:34;;;;;;;11.53;6.00;;;;;;;;;;5035144;28;20204;-76
2023/04/06 12:12:38;;;;;;;7.00;6.00;;;;;;;;;;5035355;28;20220;-76
2023/04/06 12:15:42;;;;;;;8.53;6.57;;;;;;;;;;5012148;28;20185;-76
2023/04/06 12:18:47;;;;;;;9.77;6.30;;;;;;;;;;5035459;28;20184;-76
2023/04/06 12:21:54;;;;;;;7.67;5.97;;;;;;;;;;5019841;28;20216;-77
2023/04/06 12:24:58;;;;;;;8.93;6.47;;;;;;;;;;5015684;28;20205;-76
2023/04/06 12:28:02;;;;;;;7.53;5.73;;;;;;;;;;5015583;28;20634;-76
2023/04/06 12:31:07;;;;;;;6.37;5.70;;;;;;;;;;5003402;28;20217;-77
2023/04/06 12:34:12;;;;;;;8.37;6.00;;;;;;;;;;5015151;28;20218;-76
2023/04/06 12:37:16;;;;;;;30.97;7.17;;;;;;;;;;5003266;28;20201;-76
2023/04/06 12:40:20;;;;;;;8.90;5.70;;;;;;;;;;5015590;28;20224;-77
2023/04/06 12:43:25;;;;;;;12.07;6.23;;;;;;;;;;5003495;28;20185;-76
2023/04/06 12:46:30;;;;;;;7.40;6.60;;;;;;;;;;5002890;28;20269;-76
2023/04/06 12:49:35;;;;;;;7.87;6.53;;;;;;;;;;5002713;28;20555;-76
2023/04/06 12:52:39;;;;;;;8.37;6.73;;;;;;;;;;4991570;28;20217;-76
2023/04/06 12:55:43;;;;;;;8.27;6.80;;;;;;;;;;5014597;28;20209;-76
2023/04/06 12:58:47;;;;;;;8.20;6.33;;;;;;;;;;5014735;28;20551;-76
2023/04/06 13:01:52;;;;;;;8.90;6.30;;;;;;;;;;5014483;28;20221;-77
2023/04/06 13:04:56;;;;;;;7.43;6.53;;;;;;;;;;5014717;28;20181;-76
2023/04/06 13:08:01;;;;;;;8.37;6.37;;;;;;;;;;5002542;28;20201;-76
2023/04/06 13:11:08;;;;;;;13.03;7.63;;;;;;;;;;5002519;28;20587;-76
2023/04/06 13:14:12;;;;;;;8.20;6.60;;;;;;;;;;5014796;28;20240;-77
2023/04/06 13:17:17;;;;;;;9.07;6.80;;;;;;;;;;5002483;28;20189;-76
2023/04/06 13:20:21;;;;;;;7.87;6.27;;;;;;;;;;5002554;28;20182;-75
2023/04/06 13:23:25;;;;;;;6.63;5.93;;;;;;;;;;5014696;28;20186;-76
2023/04/06 13:26:29;;;;;;;6.33;5.70;;;;;;;;;;5014366;28;20173;-76
2023/04/06 13:29:34;;;;;;;7.97;6.10;;;;;;;;;;4979704;28;20201;-76
2023/04/06 13:32:38;;;;;;;13.27;6.60;;;;;;;;;;5001871;28;20221;-76
2023/04/06 13:35:45;;;;;;;8.57;5.67;;;;;;;;;;5014393;28;20590;-76
2023/04/06 13:38:49;;;;;;;6.90;5.30;;;;;;;;;;5014113;28;20201;-75
2023/04/06 13:41:58;;;;;;;6.43;5.73;;;;;;;;;;5002018;28;20225;-75
2023/04/06 13:45:02;;;;;;;7.00;5.20;;;;;;;;;;5002139;28;20186;-75
2023/04/06 13:48:07;;;;;;;6.33;5.70;;;;;;;;;;5013946;28;20190;-76
2023/04/06 13:51:12;;;;;;;8.77;6.33;;;;;;;;;;5001834;28;20225;-75
2023/04/06 13:54:16;;;;;;;9.50;5.53;;;;;;;;;;5013511;28;20225;-75
2023/04/06 13:57:20;;;;;;;5.47;4.37;;;;;;;;;;5001363;28;20209;-76
2023/04/06 14:00:24;;;;;;;5.20;4.53;;;;;;;;;;5013860;28;20185;-76
2023/04/06 14:03:29;;;;;;;8.03;5.53;;;;;;;;;;4990404;28;20227;-76
2023/04/06 14:06:33;;;;;;;10.70;5.93;;;;;;;;;;5002084;28;20181;-76
2023/04/06 14:09:37;;;;;;;6.97;5.30;;;;;;;;;;5013652;28;20190;-75
2023/04/06 14:12:44;;;;;;;8.10;6.43;;;;;;;;;;5014057;28;20221;-76
2023/04/06 14:15:52;;;;;;;10.30;7.20;;;;;;;;;;5013717;28;20221;-75
2023/04/06 14:18:57;;;;;;;7.77;6.93;;;;;;;;;;5001768;28;20192;-76
2023/04/06 14:22:01;;;;;;;10.93;7.10;;;;;;;;;;5001280;28;20221;-75
2023/04/06 14:25:06;;;;;;;17.60;7.20;;;;;;;;;;5012588;28;20185;-76
2023/04/06 14:28:10;;;;;;;16.20;8.07;;;;;;;;;;5001758;28;20676;-76
2023/04/06 14:31:15;;;;;;;7.30;6.40;;;;;;;;;;5013754;28;20704;-76
2023/04/06 14:34:21;;;;;;;7.60;6.60;;;;;;;;;;5012430;28;20205;-75
2023/04/06 14:37:25;;;;;;;9.77;7.40;;;;;;;;;;5013526;28;20189;-76
2023/04/06 14:40:29;;;;;;;9.90;7.37;;;;;;;;;;5013379;28;20181;-76
2023/04/06 14:43:33;;;;;;;8.13;6.87;;;;;;;;;;5013768;28;20185;-76
2023/04/06 14:46:37;;;;;;;10.00;7.43;;;;;;;;;;5013362;28;20205;-76
2023/04/06 14:49:41;;;;;;;16.03;7.30;;;;;;;;;;5013038;28;20213;-75
2023/04/06 14:52:46;;;;;;;9.17;7.10;;;;;;;;;;5000899;28;20229;-76
2023/04/06 14:55:53;;;;;;;7.93;6.43;;;;;;;;;;4978855;28;20213;-75
2023/04/06 14:58:58;;;;;;;10.80;7.40;;;;;;;;;;5002075;28;20206;-75
2023/04/06 15:02:03;;;;;;;8.20;6.73;;;;;;;;;;4990084;28;20713;-75
2023/04/06 15:05:07;;;;;;;10.23;6.80;;;;;;;;;;5013526;28;20531;-75
2023/04/06 15:08:13;;;;;;;8.37;7.03;;;;;;;;;;5001173;28;20189;-76
2023/04/06 15:11:17;;;;;;;10.53;7.60;;;;;;;;;;5012989;28;20229;-76
2023/04/06 15:14:21;;;;;;;8.30;7.50;;;;;;;;;;5001024;28;20185;-75
2023/04/06 15:17:26;;;;;;;7.40;6.60;;;;;;;;;;5013015;28;20182;-76
2023/04/06 15:20:30;;;;;;;9.17;6.63;;;;;;;;;;5000923;28;20519;-76
2023/04/06 15:23:34;;;;;;;9.57;7.10;;;;;;;;;;5013103;28;20642;-76
2023/04/06 15:26:38;;;;;;;10.47;7.33;;;;;;;;;;4989395;28;20658;-76
2023/04/06 15:29:42;;;;;;;9.53;7.37;;;;;;;;;;5001092;28;20205;-76
2023/04/06 15:32:53;;;;;;;9.97;7.70;;;;;;;;;;5000674;28;20181;-76
2023/04/06 15:35:57;;;;;;;11.63;6.90;;;;;;;;;;5001185;28;20209;-76
2023/04/06 15:39:02;;;;;;;8.33;6.63;;;;;;;;;;5012848;28;20555;-76
2023/04/06 15:42:07;;;;;;;9.33;7.30;;;;;;;;;;5012740;28;20221;-76
2023/04/06 15:45:11;;;;;;;8.50;7.20;;;;;;;;;;4980026;28;20181;-77
2023/04/06 15:48:15;;;;;;;11.83;7.40;;;;;;;;;;4992962;28;20190;-75
2023/04/06 15:51:19;;;;;;;10.70;6.63;;;;;;;;;;5004367;28;20709;-76
2023/04/06 15:54:24;;;;;;;11.03;7.90;;;;;;;;;;5004112;28;20192;-75
2023/04/06 15:57:28;;;;;;;9.70;7.30;;;;;;;;;;5004027;28;20689;-75
2023/04/06 16:00:32;;;;;;;9.27;7.60;;;;;;;;;;5015327;28;20190;-76
2023/04/06 16:03:36;;;;;;;9.73;7.20;;;;;;;;;;5014926;28;20531;-76
2023/04/06 16:06:41;;;;;;;8.30;6.33;;;;;;;;;;5003977;28;20524;-76
2023/04/06 16:09:44;;;;;;;9.33;6.93;;;;;;;;;;5015720;28;20194;-76
2023/04/06 16:12:49;;;;;;;11.87;6.87;;;;;;;;;;5003898;28;20197;-77
2023/04/06 16:15:53;;;;;;;11.47;7.30;;;;;;;;;;5016213;28;20232;-76
2023/04/06 16:18:57;;;;;;;11.87;8.37;;;;;;;;;;5015732;28;20182;-75
2023/04/06 16:22:01;;;;;;;8.73;5.87;;;;;;;;;;5015782;28;20244;-75
2023/04/06 16:25:06;;;;;;;26.73;12.87;;;;;;;;;;5015574;28;20527;-76
2023/04/06 16:28:10;;;;;;;18.73;12.67;;;;;;;;;;5003724;28;20192;-77
2023/04/06 16:31:19;;;;;;;11.20;8.20;;;;;;;;;;5003257;28;20228;-77
2023/04/06 16:34:23;;;;;;;8.40;7.10;;;;;;;;;;5015313;28;20210;-76
2023/04/06 16:37:29;;;;;;;15.07;6.87;;;;;;;;;;5014712;28;20193;-76
2023/04/06 16:40:33;;;;;;;13.10;7.80;;;;;;;;;;5015364;28;20205;-75
2023/04/06 16:43:37;;;;;;;10.10;7.00;;;;;;;;;;4992508;28;20185;-76
2023/04/06 16:46:42;;;;;;;15.80;9.80;;;;;;;;;;5003342;28;20189;-75
2023/04/06 16:49:46;;;;;;;11.30;6.90;;;;;;;;;;5014722;28;20566;-75
2023/04/06 16:52:50;;;;;;;9.33;6.63;;;;;;;;;;5002968;28;20198;-76
2023/04/06 16:55:54;;;;;;;7.73;6.13;;;;;;;;;;5002277;28;20217;-75
2023/04/06 16:58:59;;;;;;;7.60;5.47;;;;;;;;;;5014466;28;20200;-76
2023/04/06 17:02:02;;;;;;;8.83;5.90;;;;;;;;;;5014584;28;20230;-75
2023/04/06 17:05:07;;;;;;;7.67;5.60;;;;;;;;;;5013965;28;20173;-75
2023/04/06 17:08:11;;;;;;;8.13;5.30;;;;;;;;;;5014928;28;20181;-76
2023/04/06 17:11:16;;;;;;;6.27;4.90;;;;;;;;;;5002108;28;20217;-76
2023/04/06 17:14:20;;;;;;;8.03;5.70;;;;;;;;;;5002432;28;20182;-76
2023/04/06 17:17:24;;;;;;;12.10;7.70;;;;;;;;;;5002218;28;20190;-76
2023/04/06 17:20:28;;;;;;;9.50;6.57;;;;;;;;;;5014221;28;20210;-76
2023/04/06 17:23:32;;;;;;;6.63;5.13;;;;;;;;;;5002240;28;20185;-76
2023/04/06 17:26:36;;;;;;;7.67;4.73;;;;;;;;;;5014484;28;20512;-75
2023/04/06 17:29:40;;;;;;;5.63;5.00;;;;;;;;;;5002354;28;20186;-76
2023/04/06 17:32:45;;;;;;;7.60;5.73;;;;;;;;;;5015053;28;20571;-77
2023/04/06 17:35:49;;;;;;;8.70;5.07;;;;;;;;;;5002120;28;20213;-77
2023/04/06 17:38:53;;;;;;;6.77;5.43;;;;;;;;;;4990904;28;20185;-78
2023/04/06 17:41:58;;;;;;;6.33;5.27;;;;;;;;;;5001857;28;20217;-77
2023/04/06 17:45:03;;;;;;;7.00;5.37;;;;;;;;;;5002383;28;20194;-77
2023/04/06 17:48:07;;;;;;;16.33;5.70;;;;;;;;;;5014414;28;20177;-77
2023/04/06 17:51:17;;;;;;;6.00;4.40;;;;;;;;;;5002407;28;20221;-77
2023/04/06 17:54:21;;;;;;;7.10;4.73;;;;;;;;;;5002436;28;20198;-77
2023/04/06 17:57:26;;;;;;;7.50;4.13;;;;;;;;;;5001745;28;20208;-77
2023/04/06 18:00:30;;;;;;;4.87;4.20;;;;;;;;;;5014231;28;20194;-76
2023/04/06 18:03:34;;;;;;;8.50;4.67;;;;;;;;;;5013938;28;20181;-77
2023/04/06 18:06:38;;;;;;;7.93;4.43;;;;;;;;;;5001580;28;20185;-76
2023/04/06 18:09:42;;;;;;;5.30;4.10;;;;;;;;;;5013541;28;20186;-77
2023/04/06 18:12:46;;;;;;;8.87;4.30;;;;;;;;;;5002145;28;20210;-77
2023/04/06 18:15:52;;;;;;;5.47;4.70;;;;;;;;;;5001411;28;20639;-77
2023/04/06 18:18:56;;;;;;;5.50;4.60;;;;;;;;;;4990625;28;20182;-77
2023/04/06 18:22:01;;;;;;;8.53;5.07;;;;;;;;;;5001473;28;20212;-76
2023/04/06 18:25:06;;;;;;;6.90;4.70;;;;;;;;;;5013251;28;20181;-76
2023/04/06 18:28:10;;;;;;;6.30;4.50;;;;;;;;;;5001454;28;20197;-77
2023/04/06 18:31:14;;;;;;;5.90;4.33;;;;;;;;;;5001240;28;20666;-77